Time,TemperatureF,DewpointF,PressureIn,WindDirection,WindDirectionDegrees,WindSpeedMPH,WindSpeedGustMPH,Humidity,HourlyPrecipIn,Conditions,Clouds,dailyrainin,SoftwareType,DateUTC
2013-03-25 00:00:00,12.0,12.0,30.42,NNW,337,10.0,14.0,100,0.00,,,0.00,VWS V14.01,2013-03-25 06:00:00,
2013-03-25 00:05:00,12.0,12.0,30.42,NNW,337,8.0,12.0,100,0.00,,,0.00,VWS V14.01,2013-03-25 06:05:00,
2013-03-25 00:10:00,11.0,11.0,30.42,NW,315,13.0,13.0,100,0.00,,,0.00,VWS V14.01,2013-03-25 06:10:00,
2013-03-25 00:15:00,11.0,11.0,30.42,NNW,337,13.0,14.0,100,0.00,,,0.00,VWS V14.01,2013-03-25 06:15:00,
2013-03-25 00:21:00,11.0,11.0,30.43,NNW,337,9.0,10.0,100,0.00,,,0.00,VWS V14.01,2013-03-25 06:21:00,
2013-03-25 00:26:00,11.0,11.0,30.43,NW,315,9.0,11.0,100,0.00,,,0.00,VWS V14.01,2013-03-25 06:26:00,
2013-03-25 00:31:00,11.0,11.0,30.43,NW,315,8.0,11.0,100,0.00,,,0.00,VWS V14.01,2013-03-25 06:31:00,
2013-03-25 00:36:00,11.0,11.0,30.43,NW,315,10.0,12.0,100,0.00,,,0.00,VWS V14.01,2013-03-25 06:36:00,
2013-03-25 00:41:00,10.0,10.0,30.44,NW,315,6.0,7.0,100,0.00,,,0.00,VWS V14.01,2013-03-25 06:41:00,
2013-03-25 00:46:00,11.0,11.0,30.44,NW,315,7.0,9.0,100,0.00,,,0.00,VWS V14.01,2013-03-25 06:46:00,
2013-03-25 00:51:00,10.0,10.0,30.44,NW,315,6.0,6.0,100,0.00,,,0.00,VWS V14.01,2013-03-25 06:51:00,
2013-03-25 00:56:00,10.0,10.0,30.44,NW,315,9.0,10.0,100,0.00,,,0.00,VWS V14.01,2013-03-25 06:56:00,
2013-03-25 01:01:00,11.0,11.0,30.43,NW,315,14.0,16.0,100,0.00,,,0.00,VWS V14.01,2013-03-25 07:01:00,
2013-03-25 01:06:00,11.0,11.0,30.43,NNW,337,10.0,15.0,100,0.00,,,0.00,VWS V14.01,2013-03-25 07:06:00,
2013-03-25 01:11:00,11.0,11.0,30.42,NW,315,9.0,13.0,100,0.00,,,0.00,VWS V14.01,2013-03-25 07:11:00,
2013-03-25 01:16:00,12.0,12.0,30.42,NNW,337,15.0,16.0,100,0.00,,,0.00,VWS V14.01,2013-03-25 07:16:00,
2013-03-25 01:21:00,12.0,12.0,30.42,NW,315,11.0,16.0,100,0.00,,,0.00,VWS V14.01,2013-03-25 07:21:00,
2013-03-25 01:26:00,12.0,12.0,30.42,NW,315,13.0,17.0,100,0.00,,,0.00,VWS V14.01,2013-03-25 07:26:00,
2013-03-25 01:31:00,11.0,11.0,30.43,NNW,337,15.0,16.0,100,0.00,,,0.00,VWS V14.01,2013-03-25 07:31:00,
2013-03-25 01:36:00,11.0,11.0,30.43,NW,315,12.0,15.0,100,0.00,,,0.00,VWS V14.01,2013-03-25 07:36:00,
2013-03-25 01:42:00,11.0,11.0,30.43,NW,315,12.0,15.0,100,0.00,,,0.00,VWS V14.01,2013-03-25 07:42:00,
2013-03-25 01:47:00,11.0,11.0,30.43,NW,315,15.0,15.0,100,0.00,,,0.00,VWS V14.01,2013-03-25 07:47:00,
2013-03-25 01:52:00,11.0,11.0,30.43,NW,315,9.0,11.0,100,0.00,,,0.00,VWS V14.01,2013-03-25 07:52:00,
2013-03-25 01:57:00,10.0,10.0,30.43,NW,315,5.0,6.0,100,0.00,,,0.00,VWS V14.01,2013-03-25 07:57:00,
2013-03-25 02:02:00,10.0,10.0,30.45,WNW,292,1.0,4.0,100,0.00,,,0.00,VWS V14.01,2013-03-25 08:02:00,
2013-03-25 02:07:00,9.0,9.0,30.45,SW,225,0.0,4.0,100,0.00,,,0.00,VWS V14.01,2013-03-25 08:07:00,
2013-03-25 02:12:00,8.0,8.0,30.45,WSW,247,3.0,4.0,100,0.00,,,0.00,VWS V14.01,2013-03-25 08:12:00,
2013-03-25 02:17:00,8.0,8.0,30.45,WNW,292,0.0,4.0,100,0.00,,,0.00,VWS V14.01,2013-03-25 08:17:00,
2013-03-25 02:22:00,9.0,9.0,30.45,West,270,0.0,5.0,100,0.00,,,0.00,VWS V14.01,2013-03-25 08:22:00,
2013-03-25 02:27:00,9.0,9.0,30.45,WNW,292,0.0,3.0,100,0.00,,,0.00,VWS V14.01,2013-03-25 08:27:00,
2013-03-25 02:32:00,9.0,9.0,30.45,West,270,3.0,4.0,100,0.00,,,0.00,VWS V14.01,2013-03-25 08:32:00,
2013-03-25 02:37:00,9.0,9.0,30.45,WNW,292,5.0,5.0,100,0.00,,,0.00,VWS V14.01,2013-03-25 08:37:00,
2013-03-25 02:42:00,9.0,9.0,30.45,WNW,292,1.0,4.0,100,0.00,,,0.00,VWS V14.01,2013-03-25 08:42:00,
2013-03-25 02:47:00,9.0,9.0,30.45,West,270,0.0,2.0,100,0.00,,,0.00,VWS V14.01,2013-03-25 08:47:00,
2013-03-25 02:52:00,9.0,9.0,30.45,WSW,247,4.0,4.0,100,0.00,,,0.00,VWS V14.01,2013-03-25 08:52:00,
2013-03-25 02:57:00,10.0,10.0,30.45,West,270,4.0,5.0,100,0.00,,,0.00,VWS V14.01,2013-03-25 08:57:00,
2013-03-25 03:02:00,10.0,10.0,30.45,WNW,292,4.0,6.0,100,0.00,,,0.00,VWS V14.01,2013-03-25 09:02:00,
2013-03-25 03:07:00,10.0,10.0,30.45,WNW,292,4.0,7.0,100,0.00,,,0.00,VWS V14.01,2013-03-25 09:07:00,
2013-03-25 03:12:00,10.0,10.0,30.45,West,270,0.0,0.0,100,0.00,,,0.00,VWS V14.01,2013-03-25 09:12:00,
2013-03-25 03:17:00,8.0,8.0,30.45,WSW,247,0.0,1.0,100,0.00,,,0.00,VWS V14.01,2013-03-25 09:17:00,
2013-03-25 03:22:00,7.0,7.0,30.46,WSW,247,0.0,2.0,100,0.00,,,0.00,VWS V14.01,2013-03-25 09:22:00,
2013-03-25 03:27:00,6.0,6.0,30.46,West,270,2.0,2.0,100,0.00,,,0.00,VWS V14.01,2013-03-25 09:27:00,
2013-03-25 03:33:00,6.0,6.0,30.47,WSW,247,2.0,2.0,100,0.00,,,0.00,VWS V14.01,2013-03-25 09:33:00,
2013-03-25 03:38:00,7.0,7.0,30.47,WNW,292,0.0,1.0,100,0.00,,,0.00,VWS V14.01,2013-03-25 09:38:00,
2013-03-25 03:43:00,7.0,7.0,30.47,WNW,292,0.0,3.0,100,0.00,,,0.00,VWS V14.01,2013-03-25 09:43:00,
2013-03-25 03:48:00,8.0,8.0,30.47,WNW,292,0.0,5.0,100,0.00,,,0.00,VWS V14.01,2013-03-25 09:48:00,
2013-03-25 03:53:00,8.0,8.0,30.45,West,270,0.0,3.0,100,0.00,,,0.00,VWS V14.01,2013-03-25 09:53:00,
2013-03-25 03:58:00,7.0,7.0,30.45,WSW,247,0.0,3.0,100,0.00,,,0.00,VWS V14.01,2013-03-25 09:58:00,
2013-03-25 04:03:00,6.0,6.0,30.45,WSW,247,0.0,7.0,100,0.00,,,0.00,VWS V14.01,2013-03-25 10:03:00,
2013-03-25 04:08:00,6.0,6.0,30.45,WSW,247,4.0,5.0,100,0.00,,,0.00,VWS V14.01,2013-03-25 10:08:00,
2013-03-25 04:13:00,5.0,5.0,30.46,West,270,0.0,2.0,100,0.00,,,0.00,VWS V14.01,2013-03-25 10:13:00,
2013-03-25 04:18:00,6.0,6.0,30.46,WSW,247,6.0,6.0,100,0.00,,,0.00,VWS V14.01,2013-03-25 10:18:00,
2013-03-25 04:23:00,6.0,6.0,30.46,WNW,292,1.0,4.0,100,0.00,,,0.00,VWS V14.01,2013-03-25 10:23:00,
2013-03-25 04:28:00,6.0,6.0,30.46,West,270,1.0,6.0,100,0.00,,,0.00,VWS V14.01,2013-03-25 10:28:00,
2013-03-25 04:33:00,6.0,6.0,30.46,SW,225,2.0,4.0,100,0.00,,,0.00,VWS V14.01,2013-03-25 10:33:00,
2013-03-25 04:38:00,6.0,6.0,30.46,WSW,247,2.0,4.0,100,0.00,,,0.00,VWS V14.01,2013-03-25 10:38:00,
2013-03-25 04:43:00,5.0,5.0,30.47,WSW,247,0.0,0.0,100,0.00,,,0.00,VWS V14.01,2013-03-25 10:43:00,
2013-03-25 04:48:00,5.0,5.0,30.47,WSW,247,0.0,2.0,100,0.00,,,0.00,VWS V14.01,2013-03-25 10:48:00,
2013-03-25 04:53:00,6.0,6.0,30.47,SW,225,1.0,4.0,100,0.00,,,0.00,VWS V14.01,2013-03-25 10:53:00,
2013-03-25 04:58:00,5.0,5.0,30.47,WSW,247,0.0,4.0,100,0.00,,,0.00,VWS V14.01,2013-03-25 10:58:00,
2013-03-25 05:03:00,5.0,5.0,30.47,WSW,247,0.0,0.0,100,0.00,,,0.00,VWS V14.01,2013-03-25 11:03:00,
2013-03-25 05:08:00,4.0,4.0,30.47,WSW,247,0.0,0.0,100,0.00,,,0.00,VWS V14.01,2013-03-25 11:08:00,
2013-03-25 05:13:00,3.0,3.0,30.48,WSW,247,0.0,0.0,100,0.00,,,0.00,VWS V14.01,2013-03-25 11:13:00,
2013-03-25 05:18:00,5.0,5.0,30.48,WSW,247,0.0,3.0,100,0.00,,,0.00,VWS V14.01,2013-03-25 11:18:00,
2013-03-25 05:23:00,4.0,4.0,30.48,WSW,247,0.0,0.0,100,0.00,,,0.00,VWS V14.01,2013-03-25 11:23:00,
2013-03-25 05:28:00,4.0,4.0,30.48,WSW,247,0.0,0.0,100,0.00,,,0.00,VWS V14.01,2013-03-25 11:28:00,
2013-03-25 05:33:00,3.0,3.0,30.48,WSW,247,0.0,0.0,100,0.00,,,0.00,VWS V14.01,2013-03-25 11:33:00,
2013-03-25 05:38:00,4.0,4.0,30.48,WSW,247,0.0,0.0,100,0.00,,,0.00,VWS V14.01,2013-03-25 11:38:00,
2013-03-25 05:43:00,4.0,4.0,30.48,WSW,247,0.0,0.0,100,0.00,,,0.00,VWS V14.01,2013-03-25 11:43:00,
2013-03-25 05:48:00,4.0,4.0,30.48,WSW,247,0.0,0.0,100,0.00,,,0.00,VWS V14.01,2013-03-25 11:48:00,
2013-03-25 05:53:00,5.0,5.0,30.48,WSW,247,0.0,1.0,100,0.00,,,0.00,VWS V14.01,2013-03-25 11:53:00,
2013-03-25 05:58:00,5.0,5.0,30.48,WSW,247,0.0,0.0,100,0.00,,,0.00,VWS V14.01,2013-03-25 11:58:00,
2013-03-25 06:03:00,5.0,5.0,30.48,WSW,247,2.0,4.0,100,0.00,,,0.00,VWS V14.01,2013-03-25 12:03:00,
2013-03-25 06:08:00,6.0,6.0,30.48,WSW,247,0.0,4.0,100,0.00,,,0.00,VWS V14.01,2013-03-25 12:08:00,
2013-03-25 06:13:00,6.0,6.0,30.47,WSW,247,0.0,2.0,100,0.00,,,0.00,VWS V14.01,2013-03-25 12:13:00,
2013-03-25 06:18:00,6.0,6.0,30.47,WSW,247,0.0,0.0,100,0.00,,,0.00,VWS V14.01,2013-03-25 12:18:00,
2013-03-25 06:23:00,5.0,4.8,30.48,WSW,247,0.0,0.0,99,0.00,,,0.00,VWS V14.01,2013-03-25 12:23:00,
2013-03-25 06:28:00,5.0,5.0,30.48,SW,225,3.0,3.0,100,0.00,,,0.00,VWS V14.01,2013-03-25 12:28:00,
2013-03-25 06:33:00,5.0,5.0,30.48,SW,225,0.0,0.0,100,0.00,,,0.00,VWS V14.01,2013-03-25 12:33:00,
2013-03-25 06:38:00,5.0,5.0,30.48,SW,225,0.0,1.0,100,0.00,,,0.00,VWS V14.01,2013-03-25 12:38:00,
2013-03-25 06:43:00,5.0,5.0,30.48,SW,225,0.0,2.0,100,0.00,,,0.00,VWS V14.01,2013-03-25 12:43:00,
2013-03-25 06:48:00,5.0,5.0,30.48,SW,225,0.0,4.0,100,0.00,,,0.00,VWS V14.01,2013-03-25 12:48:00,
2013-03-25 06:53:00,5.0,5.0,30.48,SW,225,0.0,3.0,100,0.00,,,0.00,VWS V14.01,2013-03-25 12:53:00,
2013-03-25 06:59:00,5.0,5.0,30.48,WSW,247,0.0,4.0,100,0.00,,,0.00,VWS V14.01,2013-03-25 12:59:00,
2013-03-25 07:03:00,4.0,4.0,30.48,WSW,247,0.0,3.0,100,0.00,,,0.00,VWS V14.01,2013-03-25 13:03:00,
2013-03-25 07:09:00,4.0,4.0,30.48,WSW,247,0.0,0.0,100,0.00,,,0.00,VWS V14.01,2013-03-25 13:09:00,
2013-03-25 07:14:00,5.0,5.0,30.48,WSW,247,0.0,1.0,100,0.00,,,0.00,VWS V14.01,2013-03-25 13:14:00,
2013-03-25 07:19:00,5.0,4.6,30.48,WSW,247,0.0,0.0,98,0.00,,,0.00,VWS V14.01,2013-03-25 13:19:00,
2013-03-25 07:24:00,4.0,4.0,30.48,WSW,247,0.0,0.0,100,0.00,,,0.00,VWS V14.01,2013-03-25 13:24:00,
2013-03-25 07:29:00,5.0,5.0,30.48,SW,225,0.0,0.0,100,0.00,,,0.00,VWS V14.01,2013-03-25 13:29:00,
2013-03-25 07:34:00,5.0,4.8,30.48,SW,225,0.0,2.0,99,0.00,,,0.00,VWS V14.01,2013-03-25 13:34:00,
2013-03-25 07:39:00,5.0,4.8,30.48,SW,225,0.0,0.0,99,0.00,,,0.00,VWS V14.01,2013-03-25 13:39:00,
2013-03-25 07:44:00,6.0,6.0,30.48,SW,225,0.0,6.0,100,0.00,,,0.00,VWS V14.01,2013-03-25 13:44:00,
2013-03-25 07:49:00,6.0,6.0,30.48,SW,225,0.0,1.0,100,0.00,,,0.00,VWS V14.01,2013-03-25 13:49:00,
2013-03-25 07:54:00,7.0,6.8,30.47,SW,225,0.0,0.0,99,0.00,,,0.00,VWS V14.01,2013-03-25 13:54:00,
2013-03-25 07:59:00,8.0,7.1,30.47,NNW,337,0.0,2.0,96,0.00,,,0.00,VWS V14.01,2013-03-25 13:59:00,
2013-03-25 08:04:00,8.0,7.1,30.46,NW,315,0.0,1.0,96,0.00,,,0.00,VWS V14.01,2013-03-25 14:04:00,
2013-03-25 08:09:00,9.0,8.1,30.46,WSW,247,0.0,0.0,96,0.00,,,0.00,VWS V14.01,2013-03-25 14:09:00,
2013-03-25 08:14:00,10.0,9.3,30.45,WSW,247,0.0,0.0,97,0.00,,,0.00,VWS V14.01,2013-03-25 14:14:00,
2013-03-25 08:19:00,12.0,10.8,30.45,WSW,247,0.0,0.0,95,0.00,,,0.00,VWS V14.01,2013-03-25 14:19:00,
2013-03-25 08:24:00,13.0,9.9,30.43,WSW,247,0.0,0.0,87,0.00,,,0.00,VWS V14.01,2013-03-25 14:24:00,
2013-03-25 08:29:00,14.0,10.3,30.43,WSW,247,0.0,0.0,85,0.00,,,0.00,VWS V14.01,2013-03-25 14:29:00,
2013-03-25 08:34:00,15.0,10.0,30.41,WSW,247,0.0,0.0,80,0.00,,,0.00,VWS V14.01,2013-03-25 14:34:00,
2013-03-25 08:39:00,15.0,10.0,30.41,WSW,247,0.0,0.0,80,0.00,,,0.00,VWS V14.01,2013-03-25 14:39:00,
2013-03-25 08:44:00,15.0,10.0,30.41,WSW,247,0.0,0.0,80,0.00,,,0.00,VWS V14.01,2013-03-25 14:44:00,
2013-03-25 09:01:00,16.0,10.6,30.40,SW,225,0.0,0.0,79,0.00,,,0.00,VWS V14.01,2013-03-25 15:01:00,
2013-03-25 09:06:00,17.0,10.5,30.40,SW,225,0.0,0.0,75,0.00,,,0.00,VWS V14.01,2013-03-25 15:06:00,
2013-03-25 09:11:00,17.0,8.9,30.40,SW,225,0.0,0.0,70,0.00,,,0.00,VWS V14.01,2013-03-25 15:11:00,
2013-03-25 09:16:00,19.0,9.2,30.40,SW,225,0.0,0.0,65,0.00,,,0.00,VWS V14.01,2013-03-25 15:16:00,
2013-03-25 09:21:00,20.0,9.8,30.38,SW,225,0.0,0.0,64,0.00,,,0.00,VWS V14.01,2013-03-25 15:21:00,
2013-03-25 09:26:00,21.0,8.6,30.38,SW,225,0.0,0.0,58,0.00,,,0.00,VWS V14.01,2013-03-25 15:26:00,
2013-03-25 09:32:00,22.0,9.1,30.37,SW,225,0.0,0.0,57,0.00,,,0.00,VWS V14.01,2013-03-25 15:32:00,
2013-03-25 09:37:00,22.0,9.5,30.37,SE,135,0.0,0.0,58,0.00,,,0.00,VWS V14.01,2013-03-25 15:37:00,
2013-03-25 09:42:00,20.0,9.1,30.38,ESE,112,0.0,0.0,62,0.00,,,0.00,VWS V14.01,2013-03-25 15:42:00,
2013-03-25 09:47:00,21.0,9.7,30.38,SE,135,0.0,0.0,61,0.00,,,0.00,VWS V14.01,2013-03-25 15:47:00,
2013-03-25 09:52:00,21.0,9.3,30.37,ESE,112,0.0,0.0,60,0.00,,,0.00,VWS V14.01,2013-03-25 15:52:00,
2013-03-25 09:57:00,21.0,10.0,30.37,ESE,112,0.0,0.0,62,0.00,,,0.00,VWS V14.01,2013-03-25 15:57:00,
2013-03-25 10:02:00,22.0,10.6,30.37,ESE,112,0.0,0.0,61,0.00,,,0.00,VWS V14.01,2013-03-25 16:02:00,
2013-03-25 10:07:00,21.0,10.0,30.37,SE,135,0.0,0.0,62,0.00,,,0.00,VWS V14.01,2013-03-25 16:07:00,
2013-03-25 10:12:00,20.0,9.4,30.37,SE,135,0.0,0.0,63,0.00,,,0.00,VWS V14.01,2013-03-25 16:12:00,
2013-03-25 10:17:00,23.0,10.4,30.37,SE,135,0.0,0.0,58,0.00,,,0.00,VWS V14.01,2013-03-25 16:17:00,
2013-03-25 10:22:00,22.0,10.2,30.36,ESE,112,0.0,0.0,60,0.00,,,0.00,VWS V14.01,2013-03-25 16:22:00,
2013-03-25 10:27:00,23.0,10.4,30.36,East,90,0.0,0.0,58,0.00,,,0.00,VWS V14.01,2013-03-25 16:27:00,
2013-03-25 10:32:00,23.0,10.1,30.35,East,90,0.0,4.0,57,0.00,,,0.00,VWS V14.01,2013-03-25 16:32:00,
2013-03-25 10:37:00,24.0,11.8,30.35,NE,45,0.0,2.0,59,0.00,,,0.00,VWS V14.01,2013-03-25 16:37:00,
2013-03-25 10:42:00,25.0,11.1,30.35,WNW,292,0.0,0.0,55,0.00,,,0.00,VWS V14.01,2013-03-25 16:42:00,
2013-03-25 10:47:00,22.0,11.7,30.35,NNE,22,0.0,6.0,64,0.00,,,0.00,VWS V14.01,2013-03-25 16:47:00,
2013-03-25 10:52:00,23.0,10.8,30.37,NNE,22,2.0,9.0,59,0.00,,,0.00,VWS V14.01,2013-03-25 16:52:00,
2013-03-25 10:57:00,22.0,11.7,30.37,NW,315,5.0,8.0,64,0.00,,,0.00,VWS V14.01,2013-03-25 16:57:00,
2013-03-25 11:02:00,23.0,12.3,30.38,North,360,1.0,6.0,63,0.00,,,0.00,VWS V14.01,2013-03-25 17:02:00,
2013-03-25 11:07:00,20.0,10.8,30.38,NW,315,0.0,5.0,67,0.00,,,0.00,VWS V14.01,2013-03-25 17:07:00,
2013-03-25 11:13:00,23.0,11.2,30.38,North,360,6.0,7.0,60,0.00,,,0.00,VWS V14.01,2013-03-25 17:13:00,
2013-03-25 11:18:00,25.0,11.1,30.38,NNW,337,4.0,4.0,55,0.00,,,0.00,VWS V14.01,2013-03-25 17:18:00,
2013-03-25 11:23:00,26.0,11.6,30.35,NNW,337,0.0,0.0,54,0.00,,,0.00,VWS V14.01,2013-03-25 17:23:00,
2013-03-25 11:28:00,24.0,11.4,30.35,NW,315,1.0,5.0,58,0.00,,,0.00,VWS V14.01,2013-03-25 17:28:00,
2013-03-25 11:33:00,23.0,11.2,30.37,NW,315,0.0,3.0,60,0.00,,,0.00,VWS V14.01,2013-03-25 17:33:00,
2013-03-25 11:38:00,25.0,12.7,30.37,NNE,22,1.0,1.0,59,0.00,,,0.00,VWS V14.01,2013-03-25 17:38:00,
2013-03-25 11:43:00,26.0,12.5,30.35,North,360,0.0,0.0,56,0.00,,,0.00,VWS V14.01,2013-03-25 17:43:00,
2013-03-25 11:48:00,23.0,11.6,30.35,NW,315,1.0,4.0,61,0.00,,,0.00,VWS V14.01,2013-03-25 17:48:00,
2013-03-25 11:53:00,25.0,13.5,30.37,North,360,4.0,7.0,61,0.00,,,0.00,VWS V14.01,2013-03-25 17:53:00,
2013-03-25 11:58:00,24.0,13.2,30.37,NNW,337,1.0,4.0,63,0.00,,,0.00,VWS V14.01,2013-03-25 17:58:00,
2013-03-25 12:03:00,24.0,13.2,30.35,WSW,247,0.0,4.0,63,0.00,,,0.00,VWS V14.01,2013-03-25 18:03:00,
2013-03-25 12:08:00,23.0,12.3,30.35,NW,315,0.0,5.0,63,0.00,,,0.00,VWS V14.01,2013-03-25 18:08:00,
2013-03-25 12:13:00,23.0,10.8,30.36,NW,315,0.0,6.0,59,0.00,,,0.00,VWS V14.01,2013-03-25 18:13:00,
2013-03-25 12:18:00,24.0,11.8,30.36,SW,225,0.0,3.0,59,0.00,,,0.00,VWS V14.01,2013-03-25 18:18:00,
2013-03-25 12:23:00,24.0,12.5,30.35,NNW,337,0.0,5.0,61,0.00,,,0.00,VWS V14.01,2013-03-25 18:23:00,
2013-03-25 12:28:00,25.0,13.5,30.35,SW,225,0.0,6.0,61,0.00,,,0.00,VWS V14.01,2013-03-25 18:28:00,
2013-03-25 12:33:00,26.0,12.5,30.34,WNW,292,0.0,0.0,56,0.00,,,0.00,VWS V14.01,2013-03-25 18:33:00,
2013-03-25 12:38:00,26.0,14.4,30.34,NNW,337,0.0,6.0,61,0.00,,,0.00,VWS V14.01,2013-03-25 18:38:00,
2013-03-25 12:43:00,25.0,12.7,30.34,West,270,0.0,0.0,59,0.00,,,0.00,VWS V14.01,2013-03-25 18:43:00,
2013-03-25 12:48:00,25.0,14.2,30.34,NW,315,0.0,5.0,63,0.00,,,0.00,VWS V14.01,2013-03-25 18:48:00,
2013-03-25 12:53:00,28.0,14.8,30.34,NW,315,0.0,0.0,57,0.00,,,0.00,VWS V14.01,2013-03-25 18:53:00,
2013-03-25 12:58:00,30.0,14.5,30.34,NW,315,0.0,0.0,52,0.00,,,0.00,VWS V14.01,2013-03-25 18:58:00,
2013-03-25 13:03:00,29.0,13.1,30.31,NE,45,3.0,7.0,51,0.00,,,0.00,VWS V14.01,2013-03-25 19:03:00,
2013-03-25 13:08:00,28.0,14.3,30.31,NNE,22,1.0,6.0,56,0.00,,,0.00,VWS V14.01,2013-03-25 19:08:00,
2013-03-25 13:13:00,26.0,13.6,30.33,ENE,67,0.0,7.0,59,0.00,,,0.00,VWS V14.01,2013-03-25 19:13:00,
2013-03-25 13:18:00,24.0,13.6,30.33,ENE,67,1.0,9.0,64,0.00,,,0.00,VWS V14.01,2013-03-25 19:18:00,
2013-03-25 13:23:00,23.0,13.4,30.35,East,90,3.0,9.0,66,0.00,,,0.00,VWS V14.01,2013-03-25 19:23:00,
2013-03-25 13:28:00,24.0,14.6,30.35,NE,45,5.0,7.0,67,0.00,,,0.00,VWS V14.01,2013-03-25 19:28:00,
2013-03-25 13:33:00,25.0,13.8,30.35,North,360,1.0,7.0,62,0.00,,,0.00,VWS V14.01,2013-03-25 19:33:00,
2013-03-25 13:38:00,28.0,14.3,30.35,NNE,22,0.0,3.0,56,0.00,,,0.00,VWS V14.01,2013-03-25 19:38:00,
2013-03-25 13:43:00,27.0,14.6,30.33,ENE,67,0.0,4.0,59,0.00,,,0.00,VWS V14.01,2013-03-25 19:43:00,
2013-03-25 13:48:00,27.0,15.0,30.33,NE,45,2.0,7.0,60,0.00,,,0.00,VWS V14.01,2013-03-25 19:48:00,
2013-03-25 13:53:00,25.0,14.2,30.33,ENE,67,0.0,8.0,63,0.00,,,0.00,VWS V14.01,2013-03-25 19:53:00,
2013-03-25 13:58:00,25.0,14.2,30.33,NE,45,0.0,3.0,63,0.00,,,0.00,VWS V14.01,2013-03-25 19:58:00,
2013-03-25 14:03:00,27.0,14.6,30.33,NE,45,0.0,0.0,59,0.00,,,0.00,VWS V14.01,2013-03-25 20:03:00,
2013-03-25 14:09:00,28.0,15.1,30.33,ENE,67,0.0,3.0,58,0.00,,,0.00,VWS V14.01,2013-03-25 20:09:00,
2013-03-25 14:14:00,27.0,15.0,30.31,East,90,0.0,2.0,60,0.00,,,0.00,VWS V14.01,2013-03-25 20:14:00,
2013-03-25 14:19:00,26.0,14.4,30.31,ENE,67,0.0,4.0,61,0.00,,,0.00,VWS V14.01,2013-03-25 20:19:00,
2013-03-25 14:24:00,29.0,15.7,30.32,NE,45,0.0,0.0,57,0.00,,,0.00,VWS V14.01,2013-03-25 20:24:00,
2013-03-25 14:29:00,29.0,15.3,30.32,NE,45,0.0,0.0,56,0.00,,,0.00,VWS V14.01,2013-03-25 20:29:00,
2013-03-25 14:34:00,28.0,15.1,30.30,SE,135,0.0,6.0,58,0.00,,,0.00,VWS V14.01,2013-03-25 20:34:00,
2013-03-25 14:39:00,28.0,15.1,30.30,WSW,247,0.0,5.0,58,0.00,,,0.00,VWS V14.01,2013-03-25 20:39:00,
2013-03-25 14:44:00,28.0,15.1,30.30,ENE,67,0.0,7.0,58,0.00,,,0.00,VWS V14.01,2013-03-25 20:44:00,
2013-03-25 14:49:00,28.0,14.8,30.30,SW,225,0.0,4.0,57,0.00,,,0.00,VWS V14.01,2013-03-25 20:49:00,
2013-03-25 14:54:00,28.0,15.5,30.30,SE,135,2.0,4.0,59,0.00,,,0.00,VWS V14.01,2013-03-25 20:54:00,
2013-03-25 14:59:00,28.0,16.3,30.30,East,90,2.0,8.0,61,0.00,,,0.00,VWS V14.01,2013-03-25 20:59:00,
2013-03-25 15:04:00,28.0,15.5,30.30,ENE,67,0.0,2.0,59,0.00,,,0.00,VWS V14.01,2013-03-25 21:04:00,
2013-03-25 15:09:00,27.0,15.4,30.30,SE,135,6.0,6.0,61,0.00,,,0.00,VWS V14.01,2013-03-25 21:09:00,
2013-03-25 15:14:00,29.0,16.1,30.30,NNE,22,0.0,2.0,58,0.00,,,0.00,VWS V14.01,2013-03-25 21:14:00,
2013-03-25 15:19:00,30.0,17.4,30.30,East,90,0.0,7.0,59,0.00,,,0.00,VWS V14.01,2013-03-25 21:19:00,
2013-03-25 15:24:00,29.0,16.5,30.28,SSE,157,0.0,5.0,59,0.00,,,0.00,VWS V14.01,2013-03-25 21:24:00,
2013-03-25 15:29:00,28.0,16.3,30.28,East,90,0.0,9.0,61,0.00,,,0.00,VWS V14.01,2013-03-25 21:29:00,
2013-03-25 15:34:00,27.0,16.1,30.29,East,90,0.0,6.0,63,0.00,,,0.00,VWS V14.01,2013-03-25 21:34:00,
2013-03-25 15:39:00,28.0,16.7,30.29,SE,135,0.0,5.0,62,0.00,,,0.00,VWS V14.01,2013-03-25 21:39:00,
2013-03-25 15:44:00,28.0,17.4,30.29,SE,135,9.0,9.0,64,0.00,,,0.00,VWS V14.01,2013-03-25 21:44:00,
2013-03-25 15:49:00,28.0,17.8,30.29,SE,135,1.0,7.0,65,0.00,,,0.00,VWS V14.01,2013-03-25 21:49:00,
2013-03-25 15:54:00,27.0,16.8,30.29,East,90,6.0,7.0,65,0.00,,,0.00,VWS V14.01,2013-03-25 21:54:00,
2013-03-25 15:59:00,27.0,17.5,30.29,ESE,112,4.0,9.0,67,0.00,,,0.00,VWS V14.01,2013-03-25 21:59:00,
2013-03-25 16:04:00,27.0,16.8,30.29,East,90,0.0,9.0,65,0.00,,,0.00,VWS V14.01,2013-03-25 22:04:00,
2013-03-25 16:09:00,27.0,16.8,30.29,ESE,112,3.0,9.0,65,0.00,,,0.00,VWS V14.01,2013-03-25 22:09:00,
2013-03-25 16:14:00,27.0,17.2,30.29,East,90,0.0,10.0,66,0.00,,,0.00,VWS V14.01,2013-03-25 22:14:00,
2013-03-25 16:19:00,27.0,17.2,30.29,East,90,4.0,6.0,66,0.00,,,0.00,VWS V14.01,2013-03-25 22:19:00,
2013-03-25 16:24:00,27.0,17.9,30.29,ESE,112,10.0,10.0,68,0.00,,,0.00,VWS V14.01,2013-03-25 22:24:00,
2013-03-25 16:29:00,27.0,17.2,30.29,ESE,112,5.0,7.0,66,0.00,,,0.00,VWS V14.01,2013-03-25 22:29:00,
2013-03-25 16:34:00,27.0,17.2,30.29,East,90,0.0,7.0,66,0.00,,,0.00,VWS V14.01,2013-03-25 22:34:00,
2013-03-25 16:39:00,27.0,17.2,30.29,East,90,6.0,11.0,66,0.00,,,0.00,VWS V14.01,2013-03-25 22:39:00,
2013-03-25 16:44:00,27.0,17.5,30.29,ESE,112,6.0,9.0,67,0.00,,,0.00,VWS V14.01,2013-03-25 22:44:00,
2013-03-25 16:49:00,27.0,16.1,30.29,SSE,157,6.0,9.0,63,0.00,,,0.00,VWS V14.01,2013-03-25 22:49:00,
2013-03-25 16:54:00,28.0,18.1,30.29,East,90,4.0,7.0,66,0.00,,,0.00,VWS V14.01,2013-03-25 22:54:00,
2013-03-25 16:59:00,28.0,17.8,30.29,ESE,112,6.0,9.0,65,0.00,,,0.00,VWS V14.01,2013-03-25 22:59:00,
2013-03-25 17:04:00,27.0,17.2,30.29,SE,135,4.0,8.0,66,0.00,,,0.00,VWS V14.01,2013-03-25 23:04:00,
2013-03-25 17:09:00,27.0,17.2,30.29,East,90,6.0,9.0,66,0.00,,,0.00,VWS V14.01,2013-03-25 23:09:00,
2013-03-25 17:14:00,27.0,17.2,30.29,ESE,112,2.0,5.0,66,0.00,,,0.00,VWS V14.01,2013-03-25 23:14:00,
2013-03-25 17:19:00,27.0,17.9,30.29,ESE,112,7.0,10.0,68,0.00,,,0.00,VWS V14.01,2013-03-25 23:19:00,
2013-03-25 17:24:00,27.0,17.9,30.29,ESE,112,9.0,10.0,68,0.00,,,0.00,VWS V14.01,2013-03-25 23:24:00,
2013-03-25 17:29:00,27.0,17.2,30.29,ESE,112,1.0,9.0,66,0.00,,,0.00,VWS V14.01,2013-03-25 23:29:00,
2013-03-25 17:34:00,27.0,17.5,30.29,ESE,112,0.0,7.0,67,0.00,,,0.00,VWS V14.01,2013-03-25 23:34:00,
2013-03-25 17:39:00,27.0,17.5,30.29,East,90,1.0,6.0,67,0.00,,,0.00,VWS V14.01,2013-03-25 23:39:00,
2013-03-25 17:45:00,27.0,17.5,30.29,ESE,112,3.0,6.0,67,0.00,,,0.00,VWS V14.01,2013-03-25 23:45:00,
2013-03-25 17:50:00,27.0,17.5,30.29,ENE,67,0.0,7.0,67,0.00,,,0.00,VWS V14.01,2013-03-25 23:50:00,
2013-03-25 17:55:00,27.0,18.5,30.29,ESE,112,6.0,7.0,70,0.00,,,0.00,VWS V14.01,2013-03-25 23:55:00,
2013-03-25 18:00:00,27.0,17.2,30.29,ESE,112,4.0,6.0,66,0.00,,,0.00,VWS V14.01,2013-03-26 00:00:00,
2013-03-25 18:05:00,27.0,17.5,30.29,ESE,112,1.0,4.0,67,0.00,,,0.00,VWS V14.01,2013-03-26 00:05:00,
2013-03-25 18:10:00,26.0,16.9,30.29,ESE,112,1.0,7.0,68,0.00,,,0.00,VWS V14.01,2013-03-26 00:10:00,
2013-03-25 18:15:00,26.0,16.9,30.29,SE,135,1.0,6.0,68,0.00,,,0.00,VWS V14.01,2013-03-26 00:15:00,
2013-03-25 18:20:00,26.0,16.9,30.29,ESE,112,2.0,3.0,68,0.00,,,0.00,VWS V14.01,2013-03-26 00:20:00,
2013-03-25 18:25:00,26.0,17.2,30.29,ESE,112,1.0,3.0,69,0.00,,,0.00,VWS V14.01,2013-03-26 00:25:00,
2013-03-25 18:30:00,26.0,17.2,30.29,ESE,112,2.0,5.0,69,0.00,,,0.00,VWS V14.01,2013-03-26 00:30:00,
2013-03-25 18:35:00,26.0,17.2,30.29,ESE,112,3.0,3.0,69,0.00,,,0.00,VWS V14.01,2013-03-26 00:35:00,
2013-03-25 18:40:00,25.0,17.3,30.30,ESE,112,1.0,3.0,72,0.00,,,0.00,VWS V14.01,2013-03-26 00:40:00,
2013-03-25 18:45:00,25.0,17.9,30.30,ESE,112,2.0,4.0,74,0.00,,,0.00,VWS V14.01,2013-03-26 00:45:00,
2013-03-25 18:50:00,25.0,17.9,30.30,ESE,112,4.0,6.0,74,0.00,,,0.00,VWS V14.01,2013-03-26 00:50:00,
2013-03-25 18:55:00,24.0,18.1,30.30,ESE,112,0.0,4.0,78,0.00,,,0.00,VWS V14.01,2013-03-26 00:55:00,
2013-03-25 19:00:00,23.0,17.8,30.31,ESE,112,1.0,1.0,80,0.00,,,0.00,VWS V14.01,2013-03-26 01:00:00,
2013-03-25 19:05:00,23.0,18.0,30.31,ESE,112,1.0,3.0,81,0.00,,,0.00,VWS V14.01,2013-03-26 01:05:00,
2013-03-25 19:10:00,22.0,17.6,30.32,SE,135,0.0,2.0,83,0.00,,,0.00,VWS V14.01,2013-03-26 01:10:00,
2013-03-25 19:15:00,22.0,18.2,30.32,SE,135,0.0,0.0,85,0.00,,,0.00,VWS V14.01,2013-03-26 01:15:00,
2013-03-25 19:20:00,21.0,17.5,30.33,SE,135,0.0,3.0,86,0.00,,,0.00,VWS V14.01,2013-03-26 01:20:00,
2013-03-25 19:25:00,20.0,17.0,30.33,SE,135,3.0,3.0,88,0.00,,,0.00,VWS V14.01,2013-03-26 01:25:00,
2013-03-25 19:30:00,20.0,17.5,30.34,SE,135,4.0,5.0,90,0.00,,,0.00,VWS V14.01,2013-03-26 01:30:00,
2013-03-25 19:35:00,20.0,17.8,30.34,SE,135,2.0,6.0,91,0.00,,,0.00,VWS V14.01,2013-03-26 01:35:00,
2013-03-25 19:40:00,20.0,17.0,30.33,SE,135,0.0,3.0,88,0.00,,,0.00,VWS V14.01,2013-03-26 01:40:00,
2013-03-25 19:45:00,19.0,17.3,30.33,SE,135,2.0,2.0,93,0.00,,,0.00,VWS V14.01,2013-03-26 01:45:00,
2013-03-25 19:50:00,19.0,17.1,30.34,SSE,157,0.0,2.0,92,0.00,,,0.00,VWS V14.01,2013-03-26 01:50:00,
2013-03-25 19:55:00,19.0,17.6,30.34,SSE,157,0.0,1.0,94,0.00,,,0.00,VWS V14.01,2013-03-26 01:55:00,
2013-03-25 20:00:00,19.0,17.1,30.34,SSE,157,0.0,1.0,92,0.00,,,0.00,VWS V14.01,2013-03-26 02:00:00,
2013-03-25 20:05:00,18.0,16.3,30.34,SE,135,1.0,1.0,93,0.00,,,0.00,VWS V14.01,2013-03-26 02:05:00,
2013-03-25 20:10:00,18.0,16.6,30.34,SSE,157,0.0,3.0,94,0.00,,,0.00,VWS V14.01,2013-03-26 02:10:00,
2013-03-25 20:15:00,18.0,17.5,30.34,SSW,202,0.0,3.0,98,0.00,,,0.00,VWS V14.01,2013-03-26 02:15:00,
2013-03-25 20:20:00,17.0,17.0,30.35,SSW,202,0.0,1.0,100,0.00,,,0.00,VWS V14.01,2013-03-26 02:20:00,
2013-03-25 20:25:00,17.0,17.0,30.35,SSW,202,0.0,0.0,100,0.00,,,0.00,VWS V14.01,2013-03-26 02:25:00,
2013-03-25 20:30:00,16.0,16.0,30.35,South,180,1.0,4.0,100,0.00,,,0.00,VWS V14.01,2013-03-26 02:30:00,
2013-03-25 20:35:00,17.0,17.0,30.35,SSE,157,0.0,3.0,100,0.00,,,0.00,VWS V14.01,2013-03-26 02:35:00,
2013-03-25 20:40:00,17.0,17.0,30.35,SSE,157,2.0,2.0,100,0.00,,,0.00,VWS V14.01,2013-03-26 02:40:00,
2013-03-25 20:45:00,17.0,17.0,30.35,South,180,4.0,6.0,100,0.00,,,0.00,VWS V14.01,2013-03-26 02:45:00,
2013-03-25 20:50:00,17.0,17.0,30.35,SSE,157,1.0,5.0,100,0.00,,,0.00,VWS V14.01,2013-03-26 02:50:00,
2013-03-25 20:55:00,17.0,17.0,30.35,South,180,3.0,5.0,100,0.00,,,0.00,VWS V14.01,2013-03-26 02:55:00,
2013-03-25 21:00:00,17.0,17.0,30.35,SSW,202,3.0,5.0,100,0.00,,,0.00,VWS V14.01,2013-03-26 03:00:00,
2013-03-25 21:05:00,17.0,17.0,30.35,SSE,157,6.0,6.0,100,0.00,,,0.00,VWS V14.01,2013-03-26 03:05:00,
2013-03-25 21:10:00,17.0,17.0,30.35,South,180,2.0,6.0,100,0.00,,,0.00,VWS V14.01,2013-03-26 03:10:00,
2013-03-25 21:15:00,17.0,17.0,30.35,South,180,5.0,6.0,100,0.00,,,0.00,VWS V14.01,2013-03-26 03:15:00,
2013-03-25 21:20:00,17.0,17.0,30.35,South,180,6.0,7.0,100,0.00,,,0.00,VWS V14.01,2013-03-26 03:20:00,
2013-03-25 21:25:00,17.0,17.0,30.35,South,180,5.0,7.0,100,0.00,,,0.00,VWS V14.01,2013-03-26 03:25:00,
2013-03-25 21:30:00,17.0,17.0,30.34,South,180,6.0,7.0,100,0.00,,,0.00,VWS V14.01,2013-03-26 03:30:00,
2013-03-25 21:35:00,17.0,17.0,30.34,South,180,7.0,8.0,100,0.00,,,0.00,VWS V14.01,2013-03-26 03:35:00,
2013-03-25 21:40:00,17.0,17.0,30.34,SSW,202,6.0,7.0,100,0.00,,,0.00,VWS V14.01,2013-03-26 03:40:00,
2013-03-25 21:45:00,17.0,17.0,30.34,South,180,6.0,8.0,100,0.00,,,0.00,VWS V14.01,2013-03-26 03:45:00,
2013-03-25 21:50:00,17.0,17.0,30.34,South,180,7.0,7.0,100,0.00,,,0.00,VWS V14.01,2013-03-26 03:50:00,
2013-03-25 21:55:00,17.0,17.0,30.34,SSE,157,7.0,8.0,100,0.00,,,0.00,VWS V14.01,2013-03-26 03:55:00,
2013-03-25 22:00:00,17.0,17.0,30.34,South,180,11.0,11.0,100,0.00,,,0.00,VWS V14.01,2013-03-26 04:00:00,
2013-03-25 22:05:00,18.0,17.0,30.34,South,180,9.0,9.0,96,0.00,,,0.00,VWS V14.01,2013-03-26 04:05:00,
2013-03-25 22:10:00,18.0,16.6,30.33,SSE,157,9.0,9.0,94,0.00,,,0.00,VWS V14.01,2013-03-26 04:10:00,
2013-03-25 22:15:00,17.0,16.3,30.33,South,180,8.0,9.0,97,0.00,,,0.00,VWS V14.01,2013-03-26 04:15:00,
2013-03-25 22:20:00,17.0,16.5,30.33,South,180,8.0,9.0,98,0.00,,,0.00,VWS V14.01,2013-03-26 04:20:00,
2013-03-25 22:25:00,17.0,17.0,30.33,SSE,157,8.0,9.0,100,0.00,,,0.00,VWS V14.01,2013-03-26 04:25:00,
2013-03-25 22:30:00,17.0,17.0,30.33,SSE,157,8.0,8.0,100,0.00,,,0.00,VWS V14.01,2013-03-26 04:30:00,
2013-03-25 22:35:00,17.0,17.0,30.33,SSE,157,8.0,9.0,100,0.00,,,0.00,VWS V14.01,2013-03-26 04:35:00,
2013-03-25 22:40:00,17.0,16.8,30.33,SSE,157,6.0,7.0,99,0.00,,,0.00,VWS V14.01,2013-03-26 04:40:00,
2013-03-25 22:45:00,17.0,17.0,30.33,SSE,157,7.0,8.0,100,0.00,,,0.00,VWS V14.01,2013-03-26 04:45:00,
2013-03-25 22:50:00,17.0,17.0,30.33,SSE,157,6.0,8.0,100,0.00,,,0.00,VWS V14.01,2013-03-26 04:50:00,
2013-03-25 22:55:00,16.0,16.0,30.33,SSE,157,8.0,9.0,100,0.00,,,0.00,VWS V14.01,2013-03-26 04:55:00,
2013-03-25 23:00:00,16.0,16.0,30.33,SSE,157,10.0,11.0,100,0.00,,,0.00,VWS V14.01,2013-03-26 05:00:00,
2013-03-25 23:05:00,16.0,16.0,30.33,SSE,157,10.0,11.0,100,0.00,,,0.00,VWS V14.01,2013-03-26 05:05:00,
2013-03-25 23:10:00,16.0,16.0,30.33,SSE,157,11.0,11.0,100,0.00,,,0.00,VWS V14.01,2013-03-26 05:10:00,
2013-03-25 23:15:00,16.0,16.0,30.33,SSE,157,7.0,9.0,100,0.00,,,0.00,VWS V14.01,2013-03-26 05:15:00,
2013-03-25 23:57:00,16.0,16.0,30.31,South,180,6.0,8.0,100,0.00,,,0.00,VWS V14.01,2013-03-26 05:57:00,